Time;durP1;ratioP1;P1;durP2;ratioP2;P2;SDS_P1;SDS_P2;PMS_P1;PMS_P2;Temp;Humidity;BMP_temperature;BMP_pressure;BME280_temperature;BME280_humidity;BME280_pressure;Samples;Min_cycle;Max_cycle;Signal;HPM_P1;HPM_P2
2021/12/10 00:02:22;;;;;;;;;;;;;;;4.74;71.55;99718.78;5052254;28;20024;-59
2021/12/10 00:04:47;;;;;;;;;;;;;;;4.75;71.58;99715.78;5052706;28;19927;-59
2021/12/10 00:07:18;;;;;;;;;;;;;;;4.78;71.38;99715.31;5053432;28;20417;-59
2021/12/10 00:09:47;;;;;;;;;;;;;;;4.79;71.33;99707.88;5043452;28;19995;-59
2021/12/10 00:12:16;;;;;;;;;;;;;;;4.78;71.79;99697.97;5046723;28;20398;-59
2021/12/10 00:14:42;;;;;;;;;;;;;;;4.78;71.79;99692.47;5052272;28;19964;-59
2021/12/10 00:17:09;;;;;;;;;;;;;;;4.75;71.39;99684.72;5052541;28;19966;-59
2021/12/10 00:19:41;;;;;;;;;;;;;;;4.78;71.29;99681.47;5051751;28;20368;-59
2021/12/10 00:22:09;;;;;;;;;;;;;;;4.74;71.64;99674.81;5053478;28;19917;-59
2021/12/10 00:24:35;;;;;;;;;;;;;;;4.73;72.01;99675.91;5050427;28;19936;-59
2021/12/10 00:27:04;;;;;;;;;;;;;;;4.73;71.31;99668.47;5052025;28;19920;-59
2021/12/10 00:29:29;;;;;;;;;;;;;;;4.75;71.43;99659.97;5051493;28;19928;-59
2021/12/10 00:32:00;;;;;;;;;;;;;;;4.74;71.02;99648.16;5052369;28;20299;-59
2021/12/10 00:34:28;;;;;;;;;;;;;;;4.73;71.53;99640.16;5051072;28;20395;-59
2021/12/10 00:36:54;;;;;;;;;;;;;;;4.72;71.54;99633.00;5053394;28;19923;-59
2021/12/10 00:39:22;;;;;;;;;;;;;;;4.74;71.44;99647.31;5052500;28;20002;-59
2021/12/10 00:41:47;;;;;;;;;;;;;;;4.70;71.36;99619.47;5052517;28;19920;-59
2021/12/10 00:44:12;;;;;;;;;;;;;;;4.71;71.39;99620.31;5053182;28;20059;-58
2021/12/10 00:46:38;;;;;;;;;;;;;;;4.73;71.40;99605.25;5048493;28;19925;-58
2021/12/10 00:49:04;;;;;;;;;;;;;;;4.77;71.08;99613.84;5052194;28;20372;-58
2021/12/10 00:51:29;;;;;;;;;;;;;;;4.75;71.17;99602.25;5052584;28;19935;-58
2021/12/10 00:53:54;;;;;;;;;;;;;;;4.75;71.07;99591.25;5051468;28;19932;-58
2021/12/10 00:56:20;;;;;;;;;;;;;;;4.76;71.06;99590.19;5052616;28;19990;-59
2021/12/10 00:58:45;;;;;;;;;;;;;;;4.78;71.19;99588.03;5052359;28;19956;-58
2021/12/10 01:01:13;;;;;;;;;;;;;;;4.80;70.95;99569.38;5051119;28;19946;-58
2021/12/10 01:03:41;;;;;;;;;;;;;;;4.79;71.00;99565.78;5050236;28;19924;-58
2021/12/10 01:06:08;;;;;;;;;;;;;;;4.81;70.97;99549.88;5052494;28;19960;-59
2021/12/10 01:08:33;;;;;;;;;;;;;;;4.80;70.62;99544.63;5052072;28;19921;-58
2021/12/10 01:11:11;;;;;;;;;;;;;;;4.81;70.93;99544.38;5053444;28;19920;-59
2021/12/10 01:13:38;;;;;;;;;;;;;;;4.83;70.64;99541.38;5055620;28;19925;-59
2021/12/10 01:16:15;;;;;;;;;;;;;;;4.81;71.02;99524.31;5055720;28;20546;-58
2021/12/10 01:24:35;;;;;;;;;;;;;;;4.78;70.62;99505.56;5056638;28;19954;-59
2021/12/10 01:27:09;;;;;;;;;;;;;;;4.79;70.98;99502.53;5055584;28;20063;-59
2021/12/10 01:29:37;;;;;;;;;;;;;;;4.79;70.59;99491.53;5055394;28;20272;-59
2021/12/10 01:32:04;;;;;;;;;;;;;;;4.79;70.84;99480.56;5055761;28;19928;-59
2021/12/10 01:34:29;;;;;;;;;;;;;;;4.82;70.87;99480.06;5056930;28;19917;-59
2021/12/10 01:36:55;;;;;;;;;;;;;;;4.86;70.85;99470.22;5052884;28;19947;-59
2021/12/10 01:39:22;;;;;;;;;;;;;;;4.86;70.45;99469.41;5055604;28;20015;-59
2021/12/10 01:41:55;;;;;;;;;;;;;;;4.87;70.59;99465.56;5056160;28;19921;-59
2021/12/10 01:44:27;;;;;;;;;;;;;;;4.88;70.69;99462.59;5055648;28;19921;-59
2021/12/10 01:46:53;;;;;;;;;;;;;;;4.88;70.88;99456.25;5053944;28;19966;-59
2021/12/10 01:49:18;;;;;;;;;;;;;;;4.90;70.68;99454.06;5056430;28;20318;-59
2021/12/10 01:51:45;;;;;;;;;;;;;;;4.90;70.59;99445.81;5054779;28;20007;-59
2021/12/10 01:54:18;;;;;;;;;;;;;;;4.89;70.23;99442.25;5054138;28;20308;-59
2021/12/10 01:56:43;;;;;;;;;;;;;;;4.91;70.60;99444.72;5054623;28;19921;-59
2021/12/10 01:59:10;;;;;;;;;;;;;;;4.91;70.51;99436.47;5056114;28;19923;-59
2021/12/10 02:01:41;;;;;;;;;;;;;;;4.93;70.29;99435.16;5055082;28;19930;-59
2021/12/10 02:04:07;;;;;;;;;;;;;;;4.93;70.58;99431.59;5055023;28;20310;-59
2021/12/10 02:06:33;;;;;;;;;;;;;;;4.91;70.60;99423.59;5056189;28;19917;-59
2021/12/10 02:08:58;;;;;;;;;;;;;;;4.92;70.47;99429.94;5055248;28;20303;-59
2021/12/10 02:11:24;;;;;;;;;;;;;;;4.91;70.41;99415.34;5053515;28;20339;-58
2021/12/10 02:13:49;;;;;;;;;;;;;;;4.92;70.47;99416.19;5054242;28;19920;-59
2021/12/10 02:16:15;;;;;;;;;;;;;;;4.96;70.26;99411.00;5054662;28;19917;-59
2021/12/10 02:18:40;;;;;;;;;;;;;;;4.98;70.17;99406.06;5054129;28;19921;-59
2021/12/10 02:21:05;;;;;;;;;;;;;;;4.98;70.37;99395.91;5055448;28;19920;-59
2021/12/10 02:23:33;;;;;;;;;;;;;;;4.98;70.20;99404.16;5055337;28;19917;-59
2021/12/10 02:26:01;;;;;;;;;;;;;;;4.97;70.22;99387.91;5053773;28;19925;-59
2021/12/10 02:28:26;;;;;;;;;;;;;;;4.97;70.07;99377.75;5055014;28;19921;-59
2021/12/10 02:30:51;;;;;;;;;;;;;;;4.98;69.91;99365.66;5052148;28;20395;-59
2021/12/10 02:33:16;;;;;;;;;;;;;;;5.00;69.93;99366.25;5054933;28;19921;-59
2021/12/10 02:35:42;;;;;;;;;;;;;;;5.00;69.92;99365.44;5053084;28;20360;-59
2021/12/10 02:38:08;;;;;;;;;;;;;;;4.97;70.00;99358.50;5055038;28;19921;-59
2021/12/10 02:40:35;;;;;;;;;;;;;;;4.95;70.01;99355.16;5053500;28;19971;-59
2021/12/10 02:43:02;;;;;;;;;;;;;;;4.98;69.93;99351.09;5055694;28;19921;-59
2021/12/10 02:45:27;;;;;;;;;;;;;;;4.97;69.77;99347.50;5054650;28;19950;-59
2021/12/10 02:47:53;;;;;;;;;;;;;;;4.97;69.98;99339.25;5049659;28;19967;-59
2021/12/10 02:50:21;;;;;;;;;;;;;;;4.95;70.21;99330.41;5054161;28;19924;-59
2021/12/10 02:52:46;;;;;;;;;;;;;;;4.95;69.85;99330.41;5054392;28;19973;-59
2021/12/10 02:55:15;;;;;;;;;;;;;;;4.96;69.95;99331.28;5053949;28;19924;-59
2021/12/10 02:57:41;;;;;;;;;;;;;;;4.93;69.90;99327.09;5053630;28;19924;-59
2021/12/10 03:00:09;;;;;;;;;;;;;;;4.92;69.73;99318.03;5053936;28;20063;-59
2021/12/10 03:02:34;;;;;;;;;;;;;;;4.93;69.88;99305.09;5054603;28;19927;-59
2021/12/10 03:04:59;;;;;;;;;;;;;;;4.93;69.73;99305.94;5051563;28;20007;-59
2021/12/10 03:07:25;;;;;;;;;;;;;;;4.93;69.32;99294.94;5053961;28;19947;-59
2021/12/10 03:09:52;;;;;;;;;;;;;;;4.93;69.70;99296.84;5054499;28;19974;-59
2021/12/10 03:12:18;;;;;;;;;;;;;;;4.93;69.77;99294.09;5053230;28;19928;-59
2021/12/10 03:14:46;;;;;;;;;;;;;;;4.94;69.64;99290.25;5054215;28;19940;-59
2021/12/10 03:17:17;;;;;;;;;;;;;;;4.97;69.61;99286.19;5052737;28;19921;-59
2021/12/10 03:19:42;;;;;;;;;;;;;;;4.98;69.77;99280.41;5054733;28;20024;-59
2021/12/10 03:22:08;;;;;;;;;;;;;;;4.90;69.48;99262.44;5050990;28;19964;-59
2021/12/10 03:24:34;;;;;;;;;;;;;;;4.99;69.63;99273.84;5054266;28;20431;-59
2021/12/10 03:27:02;;;;;;;;;;;;;;;5.00;69.82;99271.94;5052827;28;19921;-60
2021/12/10 03:29:28;;;;;;;;;;;;;;;4.96;69.61;99273.53;5053463;28;19917;-59
2021/12/10 03:31:54;;;;;;;;;;;;;;;4.96;69.51;99270.78;5054409;28;19971;-59
2021/12/10 03:34:19;;;;;;;;;;;;;;;4.93;69.63;99269.38;5052606;28;19920;-59
2021/12/10 03:36:46;;;;;;;;;;;;;;;4.96;69.46;99257.03;5053880;28;19951;-60
2021/12/10 03:39:15;;;;;;;;;;;;;;;4.98;69.63;99247.44;5052576;28;19927;-60
2021/12/10 03:41:41;;;;;;;;;;;;;;;4.98;69.43;99247.44;5053563;28;20287;-60
2021/12/10 03:44:07;;;;;;;;;;;;;;;4.97;69.43;99250.44;5052574;28;20261;-60
2021/12/10 03:46:32;;;;;;;;;;;;;;;4.96;69.63;99243.28;5052583;28;19928;-59
2021/12/10 03:49:03;;;;;;;;;;;;;;;4.97;69.44;99228.44;5036228;28;19917;-60
2021/12/10 03:51:28;;;;;;;;;;;;;;;4.99;69.53;99234.50;5052126;28;20027;-60
2021/12/10 03:53:53;;;;;;;;;;;;;;;4.99;69.41;99243.63;5054149;28;20062;-61
2021/12/10 03:56:20;;;;;;;;;;;;;;;5.00;69.58;99231.53;5045935;28;20617;-60
2021/12/10 03:58:45;;;;;;;;;;;;;;;5.03;69.27;99233.75;5034010;28;20004;-61
2021/12/10 04:01:11;;;;;;;;;;;;;;;5.04;69.16;99237.34;5032272;28;20384;-63
2021/12/10 04:03:40;;;;;;;;;;;;;;;5.01;69.50;99224.91;5033328;28;19917;-60
2021/12/10 04:06:05;;;;;;;;;;;;;;;5.00;69.22;99212.28;5033084;28;19921;-58
2021/12/10 04:08:31;;;;;;;;;;;;;;;4.99;69.54;99210.63;5032131;28;20339;-60
2021/12/10 04:11:03;;;;;;;;;;;;;;;4.98;69.22;99200.69;5033238;28;20269;-58
2021/12/10 04:13:28;;;;;;;;;;;;;;;4.98;69.57;99197.94;5029348;28;19929;-58
2021/12/10 04:15:54;;;;;;;;;;;;;;;5.00;69.41;99189.44;5033115;28;19917;-62
2021/12/10 04:18:20;;;;;;;;;;;;;;;5.01;69.29;99191.94;5032462;28;20331;-58
2021/12/10 04:20:45;;;;;;;;;;;;;;;5.03;69.47;99184.25;5033746;28;19917;-59
2021/12/10 04:23:12;;;;;;;;;;;;;;;5.04;69.82;99180.41;5033391;28;19925;-59
2021/12/10 04:25:39;;;;;;;;;;;;;;;5.07;69.20;99173.56;5031526;28;19921;-60
2021/12/10 04:28:07;;;;;;;;;;;;;;;5.06;69.14;99164.47;5031221;28;20414;-59
2021/12/10 04:30:39;;;;;;;;;;;;;;;5.06;69.26;99156.22;5032873;28;19921;-59
2021/12/10 04:33:05;;;;;;;;;;;;;;;5.07;69.13;99157.06;5032078;28;20292;-59
2021/12/10 04:35:30;;;;;;;;;;;;;;;5.08;69.28;99153.25;5032529;28;19925;-59
2021/12/10 04:37:55;;;;;;;;;;;;;;;5.05;69.22;99143.56;5032268;28;19921;-59
2021/12/10 04:40:21;;;;;;;;;;;;;;;5.06;69.11;99134.22;5032012;28;20287;-59
2021/12/10 04:42:47;;;;;;;;;;;;;;;5.07;69.24;99129.56;5032533;28;19927;-59
2021/12/10 04:45:14;;;;;;;;;;;;;;;5.07;68.92;99126.81;5033427;28;20323;-59
2021/12/10 04:47:39;;;;;;;;;;;;;;;5.04;69.05;99119.94;5030488;28;19925;-59
2021/12/10 04:50:05;;;;;;;;;;;;;;;5.01;69.18;99109.44;5033031;28;19926;-58
2021/12/10 04:52:30;;;;;;;;;;;;;;;4.99;69.33;99113.53;5032556;28;20390;-58
2021/12/10 04:54:56;;;;;;;;;;;;;;;5.00;69.28;99099.53;5031512;28;20007;-59
2021/12/10 04:57:21;;;;;;;;;;;;;;;5.01;69.36;99103.94;5046081;28;19921;-59
2021/12/10 04:59:46;;;;;;;;;;;;;;;5.01;69.03;99092.94;5052014;28;19963;-58
2021/12/10 05:02:15;;;;;;;;;;;;;;;5.03;69.26;99087.16;5053227;28;20364;-59
2021/12/10 05:04:43;;;;;;;;;;;;;;;5.04;69.13;99075.94;5050051;28;19956;-59
2021/12/10 05:07:09;;;;;;;;;;;;;;;5.03;69.27;99076.16;5052637;28;19921;-58
2021/12/10 05:09:34;;;;;;;;;;;;;;;5.03;68.95;99071.53;5051648;28;20335;-58
2021/12/10 05:12:01;;;;;;;;;;;;;;;5.01;68.78;99070.94;5051489;28;19936;-60
2021/12/10 05:14:27;;;;;;;;;;;;;;;5.01;69.05;99065.44;5052566;28;19963;-59
2021/12/10 05:16:54;;;;;;;;;;;;;;;5.03;68.86;99070.66;5051362;28;19921;-59
2021/12/10 05:19:22;;;;;;;;;;;;;;;5.02;68.97;99066.28;5052785;28;20260;-59
2021/12/10 05:21:47;;;;;;;;;;;;;;;5.01;68.84;99056.38;5049760;28;19925;-59
2021/12/10 05:24:13;;;;;;;;;;;;;;;5.03;68.84;99063.28;5050664;28;19921;-59
2021/12/10 05:26:39;;;;;;;;;;;;;;;5.05;68.99;99057.50;5051844;28;20051;-59
2021/12/10 05:29:06;;;;;;;;;;;;;;;5.05;69.00;99054.75;5052266;28;20373;-60
2021/12/10 05:31:31;;;;;;;;;;;;;;;5.04;68.70;99056.69;5052390;28;20007;-59
2021/12/10 05:33:56;;;;;;;;;;;;;;;5.04;68.83;99053.94;5052820;28;20010;-59
2021/12/10 05:36:22;;;;;;;;;;;;;;;5.03;68.58;99045.91;5051153;28;19916;-59
2021/12/10 05:38:47;;;;;;;;;;;;;;;5.01;68.94;99039.88;5052419;28;19928;-59
2021/12/10 05:41:12;;;;;;;;;;;;;;;5.02;68.70;99045.09;5049604;28;19956;-59
2021/12/10 05:43:38;;;;;;;;;;;;;;;5.03;68.67;99041.28;5051078;28;20413;-59
2021/12/10 05:46:04;;;;;;;;;;;;;;;5.02;68.40;99031.34;5050876;28;19998;-59
2021/12/10 05:48:29;;;;;;;;;;;;;;;5.04;68.68;99028.34;5051941;28;20372;-59
2021/12/10 05:50:54;;;;;;;;;;;;;;;5.05;68.57;99033.59;5051279;28;20011;-59
2021/12/10 05:53:20;;;;;;;;;;;;;;;5.06;68.72;99029.72;5052790;28;19962;-59
2021/12/10 05:55:45;;;;;;;;;;;;;;;5.03;68.43;99033.03;5050670;28;20015;-59
2021/12/10 05:58:12;;;;;;;;;;;;;;;5.02;68.73;99034.09;5050864;28;20340;-59
2021/12/10 06:00:40;;;;;;;;;;;;;;;5.02;68.54;99034.09;5051615;28;19925;-59
2021/12/10 06:03:05;;;;;;;;;;;;;;;5.01;68.84;99026.13;5054401;28;19967;-59
2021/12/10 06:05:32;;;;;;;;;;;;;;;5.01;68.62;99031.63;5053979;28;19928;-58
2021/12/10 06:07:57;;;;;;;;;;;;;;;5.02;68.34;99025.84;5054118;28;20327;-59
2021/12/10 06:10:23;;;;;;;;;;;;;;;5.03;68.49;99029.41;5053611;28;19924;-59
2021/12/10 06:12:49;;;;;;;;;;;;;;;5.01;68.59;99021.44;5054874;28;19964;-59
2021/12/10 06:15:14;;;;;;;;;;;;;;;5.02;68.54;99017.59;5052836;28;19952;-60
2021/12/10 06:17:40;;;;;;;;;;;;;;;5.02;68.22;99017.59;5051578;28;19928;-59
2021/12/10 06:20:07;;;;;;;;;;;;;;;5.05;68.71;99016.25;5054419;28;20291;-58
2021/12/10 06:22:32;;;;;;;;;;;;;;;5.08;68.44;99019.31;5054285;28;19928;-59
2021/12/10 06:24:57;;;;;;;;;;;;;;;5.09;68.52;99014.63;5052691;28;19924;-59
2021/12/10 06:27:23;;;;;;;;;;;;;;;5.09;68.53;99015.47;5053481;28;20391;-59
2021/12/10 06:29:48;;;;;;;;;;;;;;;5.11;68.23;99020.72;5052917;28;19929;-59
2021/12/10 06:32:13;;;;;;;;;;;;;;;5.12;68.56;99014.94;5057012;28;19943;-59
2021/12/10 06:34:38;;;;;;;;;;;;;;;5.12;68.31;99008.63;5047714;28;19928;-59
2021/12/10 06:37:04;;;;;;;;;;;;;;;5.11;68.47;99007.78;5056426;28;20019;-59
2021/12/10 06:39:30;;;;;;;;;;;;;;;5.12;68.49;99012.19;5053901;28;19921;-59
2021/12/10 06:41:55;;;;;;;;;;;;;;;5.12;68.36;99003.13;5060223;28;19990;-59
2021/12/10 06:44:21;;;;;;;;;;;;;;;5.13;68.39;99010.28;5057955;28;19916;-60
2021/12/10 06:46:47;;;;;;;;;;;;;;;5.12;68.63;99001.19;5052442;28;19927;-60
2021/12/10 06:49:13;;;;;;;;;;;;;;;5.14;68.50;99006.41;5049584;28;19928;-60
2021/12/10 06:51:38;;;;;;;;;;;;;;;5.14;68.35;99003.66;5052993;28;20429;-59
2021/12/10 06:54:04;;;;;;;;;;;;;;;5.12;68.33;99009.44;5055169;28;19955;-59
2021/12/10 06:56:31;;;;;;;;;;;;;;;5.13;68.73;99013.84;5057132;28;19944;-60
2021/12/10 06:58:56;;;;;;;;;;;;;;;5.14;68.35;99021.00;5053607;28;20011;-59
2021/12/10 07:01:24;;;;;;;;;;;;;;;5.15;68.46;99019.09;5050806;28;20385;-59
2021/12/10 07:03:51;;;;;;;;;;;;;;;5.14;68.41;99026.50;5050318;28;19929;-59
2021/12/10 07:06:17;;;;;;;;;;;;;;;5.16;68.53;99024.34;5052353;28;19928;-59
2021/12/10 07:08:43;;;;;;;;;;;;;;;5.17;68.48;99025.16;5048370;28;19925;-59
2021/12/10 07:11:11;;;;;;;;;;;;;;;5.17;68.50;99011.41;5049773;28;19928;-60
2021/12/10 07:13:37;;;;;;;;;;;;;;;5.17;68.51;99014.97;5049684;28;19935;-60
2021/12/10 07:16:02;;;;;;;;;;;;;;;5.18;68.51;99016.63;5048227;28;19928;-60
2021/12/10 07:18:27;;;;;;;;;;;;;;;5.16;68.28;99018.84;5048853;28;19928;-60
2021/12/10 07:20:53;;;;;;;;;;;;;;;5.18;68.23;99022.13;5048801;28;19990;-60
2021/12/10 07:23:21;;;;;;;;;;;;;;;5.19;68.36;99014.75;5049809;28;19928;-60
2021/12/10 07:25:46;;;;;;;;;;;;;;;5.21;68.33;99012.53;5045026;28;20278;-59
2021/12/10 07:28:12;;;;;;;;;;;;;;;5.22;68.26;99016.09;5049315;28;19916;-59
2021/12/10 07:30:38;;;;;;;;;;;;;;;5.23;68.19;99009.53;5042884;28;19976;-60
2021/12/10 07:33:03;;;;;;;;;;;;;;;5.25;68.17;99016.41;5049411;28;19916;-60
2021/12/10 07:35:28;;;;;;;;;;;;;;;5.26;68.31;99014.50;5045410;28;19935;-60
2021/12/10 07:37:54;;;;;;;;;;;;;;;5.26;68.29;99011.75;5050148;28;20265;-60
2021/12/10 07:40:20;;;;;;;;;;;;;;;5.27;68.27;99007.91;5047122;28;20272;-60
2021/12/10 07:42:46;;;;;;;;;;;;;;;5.25;68.50;99004.59;5049279;28;20003;-59
2021/12/10 07:45:12;;;;;;;;;;;;;;;5.27;68.11;99008.75;5049267;28;20368;-58
2021/12/10 07:47:37;;;;;;;;;;;;;;;5.27;68.20;99011.50;5050945;28;20261;-59
2021/12/10 07:50:18;;;;;;;;;;;;;;;5.27;68.10;99013.41;5051069;28;19929;-58
2021/12/10 07:52:45;;;;;;;;;;;;;;;5.29;68.35;99012.03;5050487;28;19921;-61
2021/12/10 07:55:11;;;;;;;;;;;;;;;5.29;68.50;99014.78;5049699;28;19920;-60
2021/12/10 07:57:37;;;;;;;;;;;;;;;5.28;68.30;99015.91;5033153;28;20287;-60
2021/12/10 08:00:06;;;;;;;;;;;;;;;5.28;68.30;99017.81;5031775;28;20012;-60
2021/12/10 08:02:31;;;;;;;;;;;;;;;5.27;68.40;99013.41;5049887;28;20482;-61
2021/12/10 08:04:56;;;;;;;;;;;;;;;5.27;68.17;99024.44;5052599;28;20011;-61
2021/12/10 08:07:22;;;;;;;;;;;;;;;5.33;69.47;99012.34;5027717;28;19921;-60
2021/12/10 08:09:47;;;;;;;;;;;;;;;5.49;69.03;99025.13;5027002;28;20300;-60
2021/12/10 08:12:12;;;;;;;;;;;;;;;5.55;68.40;99026.81;5035286;28;19921;-60
2021/12/10 08:14:37;;;;;;;;;;;;;;;5.51;68.44;99020.19;5030293;28;19925;-60
2021/12/10 08:17:03;;;;;;;;;;;;;;;5.47;68.26;99021.00;5037849;28;19921;-60
2021/12/10 08:19:29;;;;;;;;;;;;;;;5.45;68.31;99021.25;5026940;28;19929;-60
2021/12/10 08:21:55;;;;;;;;;;;;;;;5.40;68.23;99013.78;5031987;28;19935;-59
2021/12/10 08:24:21;;;;;;;;;;;;;;;5.40;68.04;99022.03;5030073;28;19925;-60
2021/12/10 08:26:46;;;;;;;;;;;;;;;5.40;68.04;99015.72;5041253;28;19966;-61
2021/12/10 08:29:11;;;;;;;;;;;;;;;5.37;67.98;99025.31;5032163;28;20288;-61
2021/12/10 08:31:36;;;;;;;;;;;;;;;5.36;68.08;99025.59;5034378;28;19968;-61
2021/12/10 08:34:02;;;;;;;;;;;;;;;5.35;68.11;99032.19;5027353;28;20383;-61
2021/12/10 08:36:29;;;;;;;;;;;;;;;5.36;67.70;99017.34;5037304;28;20284;-61
2021/12/10 08:38:55;;;;;;;;;;;;;;;5.35;68.16;99021.19;5031548;28;19921;-61
2021/12/10 08:41:21;;;;;;;;;;;;;;;5.35;67.93;99026.69;5031705;28;20311;-61
2021/12/10 08:43:47;;;;;;;;;;;;;;;5.35;67.96;99022.00;5031226;28;20322;-61
2021/12/10 08:46:13;;;;;;;;;;;;;;;5.35;67.79;99027.50;5030397;28;19921;-62
2021/12/10 08:48:38;;;;;;;;;;;;;;;5.37;68.18;99018.97;5029477;28;19929;-61
2021/12/10 08:51:19;;;;;;;;;;;;;;;5.36;67.96;99014.59;5034026;28;19928;-61
2021/12/10 08:53:44;;;;;;;;;;;;;;;5.36;68.09;99022.84;5031681;28;19923;-60
2021/12/10 08:56:10;;;;;;;;;;;;;;;5.35;67.51;99032.19;5040375;28;20029;-61
2021/12/10 08:58:35;;;;;;;;;;;;;;;5.35;67.81;99027.50;5050268;28;19920;-61
2021/12/10 09:01:03;;;;;;;;;;;;;;;5.34;68.18;99025.00;5042140;28;19920;-59
2021/12/10 09:03:28;;;;;;;;;;;;;;;5.34;67.92;99025.00;5050092;28;20015;-59
2021/12/10 09:05:54;;;;;;;;;;;;;;;5.36;67.94;99022.84;5047363;28;20012;-59
2021/12/10 09:08:19;;;;;;;;;;;;;;;5.38;67.96;99023.38;5051963;28;19924;-59
2021/12/10 09:10:46;;;;;;;;;;;;;;;5.38;67.59;99026.13;5050053;28;20319;-59
2021/12/10 09:13:16;;;;;;;;;;;;;;;5.39;67.44;99030.56;5051442;28;19913;-59
2021/12/10 09:15:43;;;;;;;;;;;;;;;5.38;67.72;99032.50;5050454;28;20307;-59
2021/12/10 09:18:09;;;;;;;;;;;;;;;5.39;67.73;99044.31;5049808;28;19974;-59
2021/12/10 09:20:38;;;;;;;;;;;;;;;5.39;67.57;99036.06;5049755;28;20390;-59
2021/12/10 09:23:04;;;;;;;;;;;;;;;5.39;67.62;99036.91;5049466;28;19921;-59
2021/12/10 09:25:29;;;;;;;;;;;;;;;5.40;67.86;99029.47;5049155;28;19936;-60
2021/12/10 09:27:55;;;;;;;;;;;;;;;5.39;67.60;99041.56;5050741;28;20256;-59
2021/12/10 09:30:22;;;;;;;;;;;;;;;5.39;67.38;99036.91;5050673;28;19921;-59
2021/12/10 09:32:47;;;;;;;;;;;;;;;5.39;67.53;99036.06;5047891;28;19928;-59
2021/12/10 09:35:13;;;;;;;;;;;;;;;5.38;67.61;99039.88;5049432;28;19925;-60
2021/12/10 09:37:40;;;;;;;;;;;;;;;5.36;67.71;99037.41;5050899;28;19952;-59
2021/12/10 09:40:10;;;;;;;;;;;;;;;5.38;67.40;99040.75;5052531;28;19921;-60
2021/12/10 09:42:35;;;;;;;;;;;;;;;5.40;67.41;99045.97;5051401;28;19921;-59
2021/12/10 09:45:01;;;;;;;;;;;;;;;5.40;67.58;99046.81;5050379;28;19920;-59
2021/12/10 09:47:26;;;;;;;;;;;;;;;5.41;67.85;99042.13;5050680;28;19925;-60
2021/12/10 09:49:53;;;;;;;;;;;;;;;5.45;67.51;99050.69;5048901;28;20376;-59
2021/12/10 09:52:20;;;;;;;;;;;;;;;5.46;67.09;99044.91;5050373;28;19978;-59
2021/12/10 09:54:45;;;;;;;;;;;;;;;5.46;67.74;99047.66;5050622;28;20432;-59
2021/12/10 09:57:15;;;;;;;;;;;;;;;5.47;67.71;99046.59;5047223;28;20039;-59
2021/12/10 09:59:41;;;;;;;;;;;;;;;5.49;67.26;99044.38;5048635;28;19935;-59
2021/12/10 10:02:07;;;;;;;;;;;;;;;5.47;67.44;99046.59;5050741;28;19928;-59
2021/12/10 10:04:35;;;;;;;;;;;;;;;5.48;67.43;99044.66;5050981;28;20312;-59
2021/12/10 10:07:05;;;;;;;;;;;;;;;5.49;67.76;99049.88;5049647;28;19921;-59
2021/12/10 10:09:33;;;;;;;;;;;;;;;5.50;66.80;99047.97;5049714;28;19925;-59
2021/12/10 10:12:10;;;;;;;;;;;;;;;5.50;66.88;99056.22;5049600;28;19929;-59
2021/12/10 10:14:38;;;;;;;;;;;;;;;5.51;67.29;99058.72;5051120;28;19925;-59
2021/12/10 10:17:03;;;;;;;;;;;;;;;5.51;67.13;99058.72;5049878;28;20011;-59
2021/12/10 10:19:29;;;;;;;;;;;;;;;5.53;67.41;99051.00;5051467;28;20473;-60
2021/12/10 10:21:56;;;;;;;;;;;;;;;5.56;67.06;99049.66;5050138;28;19924;-59
2021/12/10 10:24:22;;;;;;;;;;;;;;;5.58;67.26;99059.31;5050480;28;20031;-59
2021/12/10 10:26:53;;;;;;;;;;;;;;;5.60;67.46;99057.13;5054172;28;19924;-59
2021/12/10 10:29:20;;;;;;;;;;;;;;;5.61;67.17;99052.44;5052380;28;19932;-59
2021/12/10 10:31:49;;;;;;;;;;;;;;;5.63;67.30;99053.03;5052309;28;19975;-59
2021/12/10 10:34:14;;;;;;;;;;;;;;;5.63;67.23;99053.03;5053211;28;19924;-59
2021/12/10 10:36:39;;;;;;;;;;;;;;;5.66;67.30;99058.00;5051460;28;19966;-59
2021/12/10 10:39:09;;;;;;;;;;;;;;;5.65;67.52;99059.91;5049646;28;19928;-59
2021/12/10 10:41:36;;;;;;;;;;;;;;;5.65;67.09;99054.41;5051059;28;19921;-60
2021/12/10 10:44:02;;;;;;;;;;;;;;;5.68;67.23;99054.97;5053395;28;20269;-59
2021/12/10 10:46:27;;;;;;;;;;;;;;;5.70;67.24;99055.53;5048673;28;19924;-60
2021/12/10 10:48:53;;;;;;;;;;;;;;;5.71;67.08;99049.78;5051286;28;20422;-59
2021/12/10 10:51:25;;;;;;;;;;;;;;;5.73;67.22;99057.75;5050206;28;19955;-59
2021/12/10 10:53:52;;;;;;;;;;;;;;;5.70;67.10;99059.13;5047684;28;19925;-60
2021/12/10 10:56:18;;;;;;;;;;;;;;;5.72;67.24;99058.84;5051161;28;20376;-60
2021/12/10 10:58:49;;;;;;;;;;;;;;;5.74;67.23;99053.91;5051645;28;20291;-59
2021/12/10 11:01:25;;;;;;;;;;;;;;;5.75;67.13;99061.09;5052973;28;19964;-59
2021/12/10 11:03:59;;;;;;;;;;;;;;;5.76;67.23;99071.00;5050615;28;20303;-60
2021/12/10 11:06:30;;;;;;;;;;;;;;;5.76;67.56;99068.25;5050814;28;20299;-61
2021/12/10 11:09:04;;;;;;;;;;;;;;;5.76;67.48;99066.31;5047520;28;19921;-61
2021/12/10 11:11:34;;;;;;;;;;;;;;;5.77;67.16;99067.13;5051899;28;19921;-61
2021/12/10 11:14:11;;;;;;;;;;;;;;;5.75;66.92;99070.16;5051571;28;19922;-62
2021/12/10 11:16:37;;;;;;;;;;;;;;;5.76;67.11;99071.81;5047941;28;19952;-62
2021/12/10 11:19:05;;;;;;;;;;;;;;;5.77;66.90;99067.97;5053104;28;19947;-62
2021/12/10 11:21:33;;;;;;;;;;;;;;;5.77;67.19;99067.97;5049166;28;19928;-61
2021/12/10 11:24:16;;;;;;;;;;;;;;;5.77;67.16;99073.47;5048710;28;19924;-62
2021/12/10 11:26:43;;;;;;;;;;;;;;;5.79;67.25;99075.97;5046596;28;19921;-61
2021/12/10 11:29:25;;;;;;;;;;;;;;;5.79;67.47;99070.47;5050766;28;19929;-61
2021/12/10 11:32:01;;;;;;;;;;;;;;;5.77;66.87;99067.97;5051771;28;19925;-61
2021/12/10 11:34:48;;;;;;;;;;;;;;;5.78;67.21;99074.31;5051372;28;19921;-60
2021/12/10 11:37:16;;;;;;;;;;;;;;;5.78;66.90;99079.84;5051672;28;19943;-60
2021/12/10 11:39:42;;;;;;;;;;;;;;;5.78;67.35;99075.16;5050360;28;19921;-62
2021/12/10 11:42:26;;;;;;;;;;;;;;;5.78;67.36;99085.34;5046248;28;19986;-61
2021/12/10 11:45:15;;;;;;;;;;;;;;;5.77;67.52;99078.16;5050636;28;19960;-61
2021/12/10 11:47:50;;;;;;;;;;;;;;;5.80;67.07;99080.38;5044841;28;20018;-61
2021/12/10 11:50:17;;;;;;;;;;;;;;;5.80;67.43;99088.63;5050339;28;19936;-61
2021/12/10 11:52:42;;;;;;;;;;;;;;;5.79;67.33;99093.31;5054302;28;20012;-62
2021/12/10 11:55:09;;;;;;;;;;;;;;;5.79;67.31;99098.81;5047119;28;20067;-61
2021/12/10 11:57:41;;;;;;;;;;;;;;;5.79;67.30;99092.50;5049247;28;19924;-62
2021/12/10 12:00:11;;;;;;;;;;;;;;;5.80;67.18;99099.66;5051478;28;19920;-62
2021/12/10 12:02:46;;;;;;;;;;;;;;;5.80;66.90;99094.97;5046349;28;19921;-62
2021/12/10 12:05:14;;;;;;;;;;;;;;;5.80;67.43;99094.97;5050446;28;20023;-62
2021/12/10 12:07:40;;;;;;;;;;;;;;;5.80;67.72;99103.22;5049973;28;19951;-63
2021/12/10 12:10:12;;;;;;;;;;;;;;;5.80;67.35;99102.41;5049039;28;19940;-62
2021/12/10 12:12:42;;;;;;;;;;;;;;;5.80;67.17;99107.91;5050707;28;19928;-62
2021/12/10 12:15:11;;;;;;;;;;;;;;;5.79;67.52;99112.59;5048636;28;19928;-62
2021/12/10 12:17:44;;;;;;;;;;;;;;;5.82;67.93;99114.00;5046034;28;19928;-61
2021/12/10 12:20:25;;;;;;;;;;;;;;;5.82;67.88;99125.84;5042947;28;19921;-62
2021/12/10 12:26:15;;;;;;;;;;;;;;;5.78;67.71;99113.69;4982143;28;20424;-60
2021/12/10 12:29:03;;;;;;;;;;;;;;;5.77;67.75;99119.44;5037964;28;19928;-60
2021/12/10 12:31:39;;;;;;;;;;;;;;;5.76;68.03;99112.28;5040982;28;19929;-59
2021/12/10 12:34:07;;;;;;;;;;;;;;;5.77;67.89;99120.28;5052496;28;19920;-60
2021/12/10 12:36:38;;;;;;;;;;;;;;;5.79;67.82;99126.34;5051778;28;20288;-60
2021/12/10 12:39:23;;;;;;;;;;;;;;;5.82;67.88;99127.75;5047972;28;19920;-59
2021/12/10 12:41:49;;;;;;;;;;;;;;;5.82;67.81;99130.53;5045997;28;19935;-59
2021/12/10 12:44:24;;;;;;;;;;;;;;;5.83;67.76;99138.50;5044909;28;19920;-59
2021/12/10 12:47:08;;;;;;;;;;;;;;;5.84;68.01;99139.31;5045651;28;20460;-60
2021/12/10 12:49:37;;;;;;;;;;;;;;;5.85;67.79;99146.47;5047122;28;19921;-60
2021/12/10 12:52:11;;;;;;;;;;;;;;;5.83;68.06;99144.00;5048945;28;19921;-59
2021/12/10 12:54:38;;;;;;;;;;;;;;;5.82;68.09;99141.53;5050655;28;20416;-60
2021/12/10 12:57:05;;;;;;;;;;;;;;;5.81;68.14;99157.19;5050417;28;19921;-59
2021/12/10 12:59:31;;;;;;;;;;;;;;;5.81;68.04;99150.88;5050556;28;19968;-60
2021/12/10 13:01:59;;;;;;;;;;;;;;;5.80;68.22;99155.53;5046622;28;19959;-59
2021/12/10 13:04:36;;;;;;;;;;;;;;;5.80;68.47;99161.03;5049325;28;19967;-59
2021/12/10 13:07:06;;;;;;;;;;;;;;;5.81;67.75;99161.88;5051091;28;19932;-59
2021/12/10 13:09:47;;;;;;;;;;;;;;;5.80;67.89;99163.81;5052463;28;19979;-59